This is the latest recevied weather packets stored in our database for station/object S51UL-6. If no packets are shown the sender has not sent any weather packets the latest 10 day(s).
| Time | Temp. | Humidity | Pressure | Rain* | Wind** | Luminosity | Snow |
|---|---|---|---|---|---|---|---|
| 1777714761 | 22.78° C | 38% | 1025 hPa | 0 mm | - | - | - |
| 1777714461 | 22.78° C | 38% | 1025.2 hPa | 0 mm | - | - | - |
| 1777714161 | 23.33° C | 39% | 1025.2 hPa | 0 mm | - | - | - |
| 1777713861 | 23.33° C | 38% | 1025.1 hPa | 0 mm | - | - | - |
| 1777713561 | 23.33° C | 38% | 1025.1 hPa | 0 mm | - | - | - |
| 1777713261 | 23.33° C | 38% | 1025.4 hPa | 0 mm | - | - | - |
| 1777712961 | 23.33° C | 38% | 1025.4 hPa | 0 mm | - | - | - |
| 1777712661 | 23.89° C | 38% | 1025.4 hPa | 0 mm | - | - | - |
| 1777712062 | 23.33° C | 39% | 1025.5 hPa | 0 mm | - | - | - |
| 1777711762 | 23.33° C | 39% | 1025.4 hPa | 0 mm | - | - | - |
| 1777711462 | 23.33° C | 40% | 1025.6 hPa | 0 mm | - | - | - |
| 1777711162 | 23.33° C | 40% | 1025.7 hPa | 0 mm | - | - | - |
| 1777710862 | 23.33° C | 41% | 1025.6 hPa | 0 mm | - | - | - |
| 1777710562 | 23.33° C | 41% | 1025.8 hPa | 0 mm | - | - | - |
| 1777710262 | 23.33° C | 43% | 1025.7 hPa | 0 mm | - | - | - |
| 1777709960 | 22.78° C | 44% | 1025.6 hPa | 0 mm | - | - | - |
| 1777709362 | 21.67° C | 44% | 1025.6 hPa | 0 mm | - | - | - |
| 1777709062 | 21.67° C | 45% | 1025.8 hPa | 0 mm | - | - | - |
| 1777708762 | 21.11° C | 46% | 1025.8 hPa | 0 mm | - | - | - |
| 1777708468 | 20.56° C | 49% | 1025.7 hPa | 0 mm | - | - | - |
| 1777708163 | 20.56° C | 51% | 1025.8 hPa | 0 mm | - | - | - |
| 1777707862 | 19.44° C | 53% | 1025.9 hPa | 0 mm | - | - | - |
| 1777707262 | 17.22° C | 61% | 1026 hPa | 0 mm | - | - | - |
| 1777706963 | 16.11° C | 63% | 1025.8 hPa | 0 mm | - | - | - |
| 1777706663 | 15.56° C | 65% | 1025.8 hPa | 0 mm | - | - | - |
* Rain latest hour (hover to see other rain measurements)
** Current wind speed in m/s (hover to see current wind gust speed)